createdAt,value
2019-02-18T00:00:57.878Z,21.93
2019-02-18T00:03:28.752Z,31.63
2019-02-18T00:05:59.927Z,23.03
2019-02-18T00:08:30.857Z,23.80
2019-02-18T00:11:01.692Z,24.03
2019-02-18T00:13:33.116Z,28.93
2019-02-18T00:16:04.246Z,31.67
2019-02-18T00:18:34.982Z,28.80
2019-02-18T00:21:06.444Z,28.57
2019-02-18T00:23:37.040Z,29.50
2019-02-18T00:26:07.895Z,29.20
2019-02-18T00:28:38.726Z,26.50
2019-02-18T00:31:09.573Z,29.40
2019-02-18T00:33:41.519Z,25.00
2019-02-18T00:36:12.083Z,28.83
2019-02-18T00:38:42.610Z,26.97
2019-02-18T00:41:13.378Z,25.17
2019-02-18T00:43:44.312Z,24.40
2019-02-18T00:46:15.003Z,27.77
2019-02-18T00:48:46.050Z,27.40
2019-02-18T00:51:16.972Z,26.43
2019-02-18T00:53:47.751Z,22.23
2019-02-18T00:56:18.621Z,25.07
2019-02-18T00:58:49.470Z,22.67
2019-02-18T01:01:20.407Z,29.30
2019-02-18T01:03:51.447Z,26.03
2019-02-18T01:06:23.139Z,25.40
2019-02-18T01:08:54.931Z,26.73
2019-02-18T01:11:25.617Z,26.33
2019-02-18T01:13:56.524Z,23.43
2019-02-18T01:16:27.747Z,28.40
2019-02-18T01:18:58.332Z,28.97
2019-02-18T01:21:29.452Z,24.40
2019-02-18T01:24:00.579Z,26.40
2019-02-18T01:26:31.220Z,25.23
2019-02-18T01:29:02.046Z,27.70
2019-02-18T01:31:33.921Z,27.23
2019-02-18T01:34:07.479Z,23.50
2019-02-18T01:36:38.376Z,25.60
2019-02-18T01:39:10.145Z,23.90
2019-02-18T01:41:41.961Z,27.93
2019-02-18T01:44:12.782Z,26.83
2019-02-18T01:46:43.635Z,26.83
2019-02-18T01:49:14.167Z,28.40
2019-02-18T01:51:44.783Z,28.40
2019-02-18T01:54:15.715Z,30.20
2019-02-18T01:56:46.923Z,30.30
2019-02-18T01:59:17.717Z,27.90
2019-02-18T02:01:48.509Z,26.07
2019-02-18T02:04:19.219Z,28.27
2019-02-18T02:06:50.273Z,26.03
2019-02-18T02:09:21.354Z,28.10
2019-02-18T02:11:52.406Z,26.90
2019-02-18T02:14:23.633Z,27.63
2019-02-18T02:16:54.661Z,25.93
2019-02-18T02:19:25.596Z,30.43
2019-02-18T02:21:56.437Z,27.70
2019-02-18T02:24:27.340Z,27.83
2019-02-18T02:26:58.378Z,24.63
2019-02-18T02:29:29.311Z,25.53
2019-02-18T02:31:59.797Z,30.47
2019-02-18T02:34:30.544Z,25.23
2019-02-18T02:37:01.479Z,28.43
2019-02-18T02:39:32.540Z,29.43
2019-02-18T02:42:03.296Z,29.70
2019-02-18T02:44:33.941Z,27.77
2019-02-18T02:47:04.617Z,27.97
2019-02-18T02:49:35.685Z,30.60
2019-02-18T02:52:07.565Z,30.10
2019-02-18T02:54:38.347Z,28.33
2019-02-18T02:57:09.365Z,39.53
2019-02-18T02:59:39.929Z,26.93
2019-02-18T03:02:10.757Z,31.20
2019-02-18T03:04:41.847Z,26.37
2019-02-18T03:07:12.403Z,29.80
2019-02-18T03:09:43.757Z,29.13
2019-02-18T03:12:17.775Z,27.50
2019-02-18T03:14:48.884Z,28.83
2019-02-18T03:17:22.035Z,32.27
2019-02-18T03:19:52.983Z,36.70
2019-02-18T03:22:23.486Z,33.83
2019-02-18T03:25:25.532Z,35.27
2019-02-18T03:28:09.175Z,35.17
2019-02-18T03:31:02.935Z,29.80
2019-02-18T03:33:46.435Z,30.83
2019-02-18T03:36:17.419Z,35.33
2019-02-18T03:38:48.541Z,35.70
2019-02-18T03:41:19.443Z,29.37
2019-02-18T03:43:50.330Z,27.60
2019-02-18T03:46:21.692Z,30.33
2019-02-18T03:48:52.203Z,32.70
2019-02-18T03:51:23.247Z,34.70
2019-02-18T03:53:54.279Z,31.97
2019-02-18T03:56:25.184Z,27.10
2019-02-18T03:58:55.999Z,35.93
2019-02-18T04:01:28.151Z,31.47
2019-02-18T04:03:59.292Z,32.50
2019-02-18T04:06:30.304Z,34.03
2019-02-18T04:09:01.234Z,31.30
2019-02-18T04:11:31.918Z,34.93
2019-02-18T04:14:02.572Z,30.33
2019-02-18T04:16:33.229Z,32.70
2019-02-18T04:19:04.225Z,31.07
2019-02-18T04:21:35.196Z,32.60
2019-02-18T04:24:06.181Z,34.83
2019-02-18T04:26:37.457Z,30.20
2019-02-18T04:29:09.998Z,31.90
2019-02-18T04:31:40.724Z,31.90
2019-02-18T04:34:13.104Z,31.53
2019-02-18T04:36:45.210Z,30.53
2019-02-18T04:39:16.212Z,43.97
2019-02-18T04:41:47.079Z,34.77
2019-02-18T04:44:19.072Z,34.40
2019-02-18T04:46:50.079Z,35.50
2019-02-18T04:49:21.042Z,38.00
2019-02-18T04:51:52.175Z,32.97
2019-02-18T04:54:22.779Z,34.10
2019-02-18T04:56:53.688Z,30.70
2019-02-18T04:59:24.451Z,32.20
2019-02-18T05:01:55.547Z,35.80
2019-02-18T05:04:27.902Z,32.50
2019-02-18T05:06:58.848Z,33.90
2019-02-18T05:09:30.703Z,31.80
2019-02-18T05:12:01.811Z,33.60
2019-02-18T05:14:32.850Z,33.93
2019-02-18T05:17:03.661Z,34.33
2019-02-18T05:19:34.775Z,37.87
2019-02-18T05:22:05.640Z,37.83
2019-02-18T05:24:36.376Z,42.73
2019-02-18T05:27:07.085Z,35.73
2019-02-18T05:29:38.013Z,44.53
2019-02-18T05:32:08.883Z,38.33
2019-02-18T05:34:39.801Z,35.87
2019-02-18T05:37:10.591Z,32.63
2019-02-18T05:39:41.318Z,32.87
2019-02-18T05:42:12.111Z,37.63
2019-02-18T05:44:43.246Z,30.07
2019-02-18T05:47:13.912Z,30.07
2019-02-18T05:49:45.364Z,32.53
2019-02-18T05:52:16.810Z,35.53
2019-02-18T05:54:47.658Z,30.60
2019-02-18T05:57:19.067Z,34.20
2019-02-18T05:59:49.984Z,34.07
2019-02-18T06:02:22.565Z,32.20
2019-02-18T06:04:53.341Z,33.27
2019-02-18T06:07:24.415Z,43.93
2019-02-18T06:09:55.121Z,39.43
2019-02-18T06:12:25.954Z,30.93
2019-02-18T06:14:56.845Z,34.80
2019-02-18T06:17:27.600Z,31.63
2019-02-18T06:19:58.366Z,37.20
2019-02-18T06:22:29.015Z,33.40
2019-02-18T06:25:00.015Z,37.53
2019-02-18T06:27:30.800Z,32.77
2019-02-18T06:30:01.371Z,34.07
2019-02-18T06:32:31.754Z,37.70
2019-02-18T06:35:02.391Z,35.83
2019-02-18T06:37:33.097Z,36.30
2019-02-18T06:40:03.902Z,36.03
2019-02-18T06:42:35.400Z,37.60
2019-02-18T06:45:30.867Z,31.00
2019-02-18T06:48:06.644Z,35.33
2019-02-18T06:50:37.302Z,34.23
2019-02-18T06:53:07.970Z,37.50
2019-02-18T06:55:38.692Z,38.90
2019-02-18T06:58:28.287Z,37.23
2019-02-18T07:01:06.606Z,51.13
2019-02-18T07:03:52.489Z,34.90
2019-02-18T07:06:55.582Z,34.93
2019-02-18T07:09:50.820Z,38.27
2019-02-18T07:12:24.915Z,37.83
2019-02-18T07:14:55.584Z,32.17
2019-02-18T07:17:26.908Z,29.30
2019-02-18T07:19:57.539Z,41.37
2019-02-18T07:22:28.796Z,34.30
2019-02-18T07:24:59.101Z,33.10
2019-02-18T07:27:31.127Z,30.63
2019-02-18T07:30:02.120Z,34.40
2019-02-18T07:32:32.490Z,33.80
2019-02-18T07:35:03.208Z,28.30
2019-02-18T07:37:34.010Z,31.07
2019-02-18T07:40:05.188Z,42.23
2019-02-18T07:42:35.993Z,33.07
2019-02-18T07:45:06.780Z,32.23
2019-02-18T07:47:38.150Z,61.67
2019-02-18T07:50:19.874Z,29.27
2019-02-18T07:52:41.960Z,33.40
2019-02-18T07:55:12.639Z,37.03
2019-02-18T07:57:43.350Z,31.43
2019-02-18T08:00:15.314Z,29.63
2019-02-18T08:02:45.762Z,31.87
2019-02-18T08:05:15.958Z,31.40
2019-02-18T08:07:46.389Z,38.07
2019-02-18T08:10:16.872Z,31.07
2019-02-18T08:12:47.245Z,26.53
2019-02-18T08:15:17.674Z,32.87
2019-02-18T08:17:55.186Z,26.97
2019-02-18T08:20:26.581Z,27.07
2019-02-18T08:22:57.161Z,27.97
2019-02-18T08:25:27.782Z,28.47
2019-02-18T08:27:58.179Z,25.53
2019-02-18T08:30:28.610Z,30.90
2019-02-18T08:32:59.226Z,29.10
2019-02-18T08:35:30.372Z,50.70
2019-02-18T08:38:01.250Z,47.40
2019-02-18T08:40:32.807Z,58.77
2019-02-18T08:43:03.732Z,52.67
2019-02-18T08:45:34.522Z,52.77
2019-02-18T08:48:06.922Z,54.63
2019-02-18T08:50:37.398Z,52.77
2019-02-18T08:53:08.211Z,52.30
2019-02-18T08:55:38.775Z,53.47
2019-02-18T08:58:09.227Z,48.43
2019-02-18T09:00:39.959Z,54.37
2019-02-18T09:03:10.635Z,51.33
2019-02-18T09:05:41.276Z,52.00
2019-02-18T09:10:53.113Z,53.90
2019-02-18T09:13:23.669Z,49.77
2019-02-18T09:16:00.163Z,49.00
2019-02-18T09:18:26.689Z,48.47
2019-02-18T09:20:57.379Z,52.40
2019-02-18T09:23:46.925Z,56.97
2019-02-18T09:26:18.085Z,50.30
2019-02-18T09:28:49.767Z,46.77
2019-02-18T09:31:25.969Z,52.03
2019-02-18T09:33:56.790Z,51.90
2019-02-18T09:36:27.347Z,50.20
2019-02-18T09:39:01.595Z,39.47
2019-02-18T09:41:33.099Z,41.93
2019-02-18T09:44:03.990Z,45.13
2019-02-18T09:46:34.803Z,43.80
2019-02-18T09:49:05.248Z,42.67
2019-02-18T09:51:35.880Z,40.37
2019-02-18T09:54:06.440Z,80.13
2019-02-18T09:56:37.215Z,44.37
2019-02-18T09:59:07.839Z,43.20
2019-02-18T10:01:39.042Z,39.30
2019-02-18T10:04:09.864Z,39.40
2019-02-18T10:06:40.322Z,42.10
2019-02-18T10:09:11.547Z,41.23
2019-02-18T10:11:41.918Z,42.57
2019-02-18T10:14:12.506Z,50.30
2019-02-18T10:16:43.017Z,39.97
2019-02-18T10:19:14.604Z,36.20
2019-02-18T10:21:44.966Z,38.50
2019-02-18T10:24:17.949Z,41.70
2019-02-18T10:26:48.504Z,49.57
2019-02-18T10:29:19.115Z,44.97
2019-02-18T10:31:50.843Z,43.03
2019-02-18T10:34:22.563Z,41.03
2019-02-18T10:36:53.170Z,39.73
2019-02-18T10:39:24.172Z,33.70
2019-02-18T10:41:55.233Z,38.23
2019-02-18T10:44:25.811Z,41.33
2019-02-18T10:46:56.263Z,42.37
2019-02-18T10:49:26.562Z,37.40
2019-02-18T10:51:57.391Z,45.53
2019-02-18T10:54:27.924Z,38.57
2019-02-18T10:57:00.654Z,37.67
2019-02-18T10:59:31.081Z,43.03
2019-02-18T11:02:04.575Z,39.00
2019-02-18T11:04:36.695Z,50.23
2019-02-18T11:07:06.990Z,45.50
2019-02-18T11:09:40.113Z,39.47
2019-02-18T11:12:10.490Z,34.33
2019-02-18T11:14:40.761Z,34.60
2019-02-18T11:17:11.523Z,25.73
2019-02-18T11:19:42.391Z,24.10
2019-02-18T11:22:13.060Z,30.50
2019-02-18T11:24:44.629Z,34.60
2019-02-18T11:27:15.652Z,41.67
2019-02-18T11:29:46.476Z,44.60
2019-02-18T11:32:17.027Z,42.40
2019-02-18T11:34:47.691Z,42.63
2019-02-18T11:37:18.857Z,45.40
2019-02-18T11:39:49.892Z,46.20
2019-02-18T11:42:20.441Z,41.80
2019-02-18T11:44:51.068Z,39.57
2019-02-18T11:47:21.982Z,38.63
2019-02-18T11:49:55.215Z,34.07
2019-02-18T11:52:25.028Z,35.70
2019-02-18T11:54:56.078Z,31.60
2019-02-18T11:57:26.744Z,33.00
2019-02-18T11:59:57.358Z,33.93
2019-02-18T12:02:29.077Z,33.70
2019-02-18T12:05:00.521Z,27.87
2019-02-18T12:07:31.053Z,28.10
2019-02-18T12:10:01.585Z,37.63
2019-02-18T12:12:32.370Z,28.27
2019-02-18T12:15:03.236Z,33.30
2019-02-18T12:17:33.947Z,30.97
2019-02-18T12:20:04.618Z,37.63
2019-02-18T12:22:35.139Z,34.10
2019-02-18T12:25:05.739Z,30.17
2019-02-18T12:27:36.311Z,33.40
2019-02-18T12:30:07.722Z,31.50
2019-02-18T12:32:38.378Z,33.80
2019-02-18T12:35:09.481Z,34.37
2019-02-18T12:37:41.657Z,37.20
2019-02-18T12:40:12.478Z,35.27
2019-02-18T12:42:43.049Z,33.07
2019-02-18T12:45:13.808Z,38.50
2019-02-18T12:47:44.565Z,38.33
2019-02-18T12:50:15.261Z,38.47
2019-02-18T12:52:45.778Z,33.40
2019-02-18T12:55:16.991Z,31.67
2019-02-18T12:57:47.727Z,37.63
2019-02-18T13:00:18.559Z,32.63
2019-02-18T13:02:49.425Z,32.43
2019-02-18T13:05:20.020Z,32.30
2019-02-18T13:07:50.546Z,31.17
2019-02-18T13:10:21.039Z,35.77
2019-02-18T13:12:51.763Z,28.87
2019-02-18T13:15:22.410Z,28.30
2019-02-18T13:17:53.164Z,34.73
2019-02-18T13:20:24.236Z,41.47
2019-02-18T13:22:54.666Z,33.80
2019-02-18T13:25:26.708Z,32.80
2019-02-18T13:27:57.179Z,40.10
2019-02-18T13:30:27.539Z,38.33
2019-02-18T13:32:59.315Z,32.60
2019-02-18T13:35:30.132Z,34.93
2019-02-18T13:38:00.567Z,36.20
2019-02-18T13:40:32.982Z,33.43
2019-02-18T13:43:04.858Z,33.33
2019-02-18T13:45:37.834Z,33.20
2019-02-18T13:48:08.319Z,41.97
2019-02-18T13:50:40.002Z,25.77
2019-02-18T13:53:12.168Z,30.73
2019-02-18T13:55:42.766Z,32.20
2019-02-18T13:58:13.454Z,39.20
2019-02-18T14:00:44.198Z,31.17
2019-02-18T14:03:16.098Z,27.63
2019-02-18T14:05:47.266Z,30.70
2019-02-18T14:08:17.859Z,30.87
2019-02-18T14:10:48.516Z,41.97
2019-02-18T14:13:22.514Z,38.40
2019-02-18T14:15:53.725Z,35.90
2019-02-18T14:18:24.328Z,41.30
2019-02-18T14:20:55.004Z,49.10
2019-02-18T14:23:26.171Z,38.40
2019-02-18T14:25:57.106Z,43.37
2019-02-18T14:28:29.859Z,35.33
2019-02-18T14:31:00.797Z,48.30
2019-02-18T14:33:33.527Z,42.13
2019-02-18T14:36:04.724Z,39.87
2019-02-18T14:38:35.410Z,83.80
2019-02-18T14:41:05.908Z,96.90
2019-02-18T14:43:36.851Z,54.23
2019-02-18T14:46:07.279Z,52.17
2019-02-18T14:48:38.130Z,45.00
2019-02-18T14:51:08.540Z,42.10
2019-02-18T14:53:38.987Z,47.13
2019-02-18T14:56:11.363Z,51.10
2019-02-18T14:58:41.863Z,42.10
2019-02-18T15:01:13.574Z,44.00
2019-02-18T15:03:43.843Z,43.00
2019-02-18T15:06:14.174Z,44.30
2019-02-18T15:08:44.581Z,49.03
2019-02-18T15:11:15.130Z,49.30
2019-02-18T15:13:45.539Z,53.00
2019-02-18T15:16:16.358Z,55.33
2019-02-18T15:18:46.840Z,48.50
2019-02-18T15:21:17.800Z,47.83
2019-02-18T15:23:48.953Z,49.80
2019-02-18T15:26:19.334Z,50.03
2019-02-18T15:28:49.855Z,57.00
2019-02-18T15:31:21.072Z,54.65
2019-02-18T15:33:51.523Z,62.93
2019-02-18T15:36:22.235Z,66.80
2019-02-18T15:38:52.870Z,63.10
2019-02-18T15:41:23.224Z,57.57
2019-02-18T15:43:53.655Z,55.73
2019-02-18T15:46:24.279Z,57.00
2019-02-18T15:48:54.950Z,50.60
2019-02-18T15:51:25.591Z,57.50
2019-02-18T15:54:00.186Z,57.13
2019-02-18T15:56:30.734Z,63.50
2019-02-18T15:59:01.161Z,62.97
2019-02-18T16:01:31.755Z,52.77
2019-02-18T16:04:03.052Z,57.43
2019-02-18T16:06:33.961Z,59.33
2019-02-18T16:09:05.863Z,66.43
2019-02-18T16:11:36.352Z,97.93
2019-02-18T16:14:07.224Z,84.53
2019-02-18T16:16:38.341Z,81.13
2019-02-18T16:19:08.875Z,86.80
2019-02-18T16:21:39.208Z,80.90
2019-02-18T16:24:19.432Z,106.40
2019-02-18T16:26:41.851Z,123.53
2019-02-18T16:29:12.349Z,98.07
2019-02-18T16:31:43.168Z,66.13
2019-02-18T16:34:13.899Z,60.50
2019-02-18T16:36:44.299Z,60.00
2019-02-18T16:39:14.664Z,61.53
2019-02-18T16:41:45.047Z,64.23
2019-02-18T16:44:15.885Z,64.13
2019-02-18T16:46:46.472Z,58.97
2019-02-18T16:49:18.626Z,67.57
2019-02-18T16:51:49.085Z,69.90
2019-02-18T16:54:20.003Z,88.93
2019-02-18T16:56:50.468Z,67.53
2019-02-18T16:59:20.866Z,70.67
2019-02-18T17:01:51.318Z,85.27
2019-02-18T17:04:21.855Z,88.30
2019-02-18T17:06:52.127Z,81.73
2019-02-18T17:09:24.076Z,74.67
2019-02-18T17:11:54.648Z,64.27
2019-02-18T17:14:25.147Z,74.77
2019-02-18T17:16:56.069Z,63.83
2019-02-18T17:19:26.753Z,75.30
2019-02-18T17:21:57.371Z,67.30
2019-02-18T17:24:27.958Z,67.77
2019-02-18T17:26:58.421Z,66.93
2019-02-18T17:29:29.025Z,68.20
2019-02-18T17:32:00.055Z,69.40
2019-02-18T17:34:30.466Z,61.60
2019-02-18T17:37:01.261Z,61.83
2019-02-18T17:39:32.902Z,55.90
2019-02-18T17:42:04.884Z,56.57
2019-02-18T17:44:37.190Z,56.83
2019-02-18T17:47:07.798Z,56.20
2019-02-18T17:49:40.686Z,59.53
2019-02-18T17:52:12.875Z,57.97
2019-02-18T17:54:44.115Z,61.00
2019-02-18T17:57:16.339Z,75.83
2019-02-18T17:59:46.979Z,77.60
2019-02-18T18:02:18.776Z,75.63
2019-02-18T18:04:49.592Z,87.90
2019-02-18T18:07:21.236Z,77.20
2019-02-18T18:09:52.256Z,86.17
2019-02-18T18:12:25.297Z,82.70
2019-02-18T18:14:56.185Z,85.10
2019-02-18T18:17:26.634Z,100.40
2019-02-18T18:19:58.763Z,120.33
2019-02-18T18:22:31.740Z,137.00
2019-02-18T18:25:02.170Z,157.43
2019-02-18T18:27:33.298Z,107.17
2019-02-18T18:30:04.466Z,86.97
2019-02-18T18:32:35.164Z,99.80
2019-02-18T18:35:05.856Z,97.53
2019-02-18T18:37:36.478Z,94.63
2019-02-18T18:40:07.482Z,70.50
2019-02-18T18:42:38.290Z,79.80
2019-02-18T18:45:09.974Z,88.13
2019-02-18T18:47:43.077Z,87.13
2019-02-18T18:50:15.631Z,76.70
2019-02-18T18:52:46.990Z,69.73
2019-02-18T18:55:18.739Z,72.80
2019-02-18T18:57:50.459Z,76.87
2019-02-18T19:00:25.409Z,70.00
2019-02-18T19:02:57.469Z,74.53
2019-02-18T19:05:28.764Z,73.50
2019-02-18T19:08:01.336Z,73.93
2019-02-18T19:10:34.054Z,76.10
2019-02-18T19:13:06.813Z,70.87
2019-02-18T19:15:37.479Z,64.67
2019-02-18T19:18:18.827Z,62.30
2019-02-18T19:20:49.582Z,76.67
2019-02-18T19:23:20.669Z,66.27
2019-02-18T19:25:51.242Z,68.07
2019-02-18T19:28:21.993Z,62.40
2019-02-18T19:30:52.372Z,61.40
2019-02-18T19:33:23.040Z,62.03
2019-02-18T19:35:53.774Z,58.60
2019-02-18T19:38:24.170Z,61.83
2019-02-18T19:40:54.892Z,88.43
2019-02-18T19:43:25.636Z,128.03
2019-02-18T19:45:56.057Z,149.50
2019-02-18T19:48:26.482Z,136.90
2019-02-18T19:51:00.521Z,98.77
2019-02-18T19:53:31.132Z,98.90
2019-02-18T19:56:01.509Z,91.83
2019-02-18T19:58:32.560Z,75.63
2019-02-18T20:01:03.391Z,74.03
2019-02-18T20:03:33.929Z,74.93
2019-02-18T20:06:05.090Z,88.67
2019-02-18T20:08:37.207Z,82.87
2019-02-18T20:11:07.992Z,76.20
2019-02-18T20:13:38.595Z,72.87
2019-02-18T20:16:09.066Z,88.33
2019-02-18T20:18:40.337Z,87.30
2019-02-18T20:21:10.920Z,74.87
2019-02-18T20:23:43.133Z,61.57
2019-02-18T20:26:14.345Z,56.73
2019-02-18T20:28:44.753Z,53.20
2019-02-18T20:31:15.558Z,62.63
2019-02-18T20:33:48.188Z,61.77
2019-02-18T20:36:18.786Z,84.27
2019-02-18T20:38:51.513Z,90.37
2019-02-18T20:41:22.993Z,62.07
2019-02-18T20:43:53.726Z,65.43
2019-02-18T20:46:25.893Z,59.57
2019-02-18T20:48:56.727Z,66.00
2019-02-18T20:51:30.749Z,60.67
2019-02-18T20:54:01.444Z,66.37
2019-02-18T20:56:32.234Z,76.63
2019-02-18T20:59:02.824Z,76.57
2019-02-18T21:01:33.344Z,80.07
2019-02-18T21:04:04.392Z,85.83
2019-02-18T21:06:35.163Z,114.60
2019-02-18T21:09:06.792Z,90.90
2019-02-18T21:11:37.499Z,78.00
2019-02-18T21:14:15.941Z,78.70
2019-02-18T21:16:42.339Z,63.27
2019-02-18T21:19:13.346Z,61.77
2019-02-18T21:21:44.018Z,80.03
2019-02-18T21:24:14.747Z,70.33
2019-02-18T21:26:45.382Z,71.50
2019-02-18T21:29:17.234Z,70.13
2019-02-18T21:31:47.940Z,56.27
2019-02-18T21:34:18.698Z,69.80
2019-02-18T21:36:49.406Z,58.70
2019-02-18T21:39:20.289Z,56.50
2019-02-18T21:41:51.622Z,67.17
2019-02-18T21:44:25.451Z,61.73
2019-02-18T21:46:55.654Z,62.73
2019-02-18T21:49:26.738Z,58.87
2019-02-18T21:51:57.262Z,74.97
2019-02-18T21:54:27.868Z,102.63
2019-02-18T21:56:58.673Z,106.60
2019-02-18T21:59:29.379Z,91.00
2019-02-18T22:02:01.133Z,87.60
2019-02-18T22:04:31.717Z,93.40
2019-02-18T22:07:02.047Z,97.17
2019-02-18T22:09:32.480Z,78.53
2019-02-18T22:12:03.225Z,74.67
2019-02-18T22:14:35.745Z,61.80
2019-02-18T22:17:06.389Z,64.90
2019-02-18T22:19:37.197Z,64.07
2019-02-18T22:22:07.692Z,66.83
2019-02-18T22:24:38.519Z,70.50
2019-02-18T22:27:10.932Z,100.57
2019-02-18T22:29:41.391Z,90.60
2019-02-18T22:32:12.127Z,88.20
2019-02-18T22:34:42.643Z,90.10
2019-02-18T22:37:13.249Z,90.03
2019-02-18T22:39:43.994Z,77.37
2019-02-18T22:42:17.948Z,86.80
2019-02-18T22:44:48.607Z,76.57
2019-02-18T22:47:19.389Z,85.33
2019-02-18T22:49:50.148Z,90.03
2019-02-18T22:52:20.937Z,78.70
2019-02-18T22:54:54.532Z,73.53
2019-02-18T22:57:25.832Z,68.20
2019-02-18T22:59:56.701Z,70.73
2019-02-18T23:02:27.398Z,87.43
2019-02-18T23:04:58.017Z,79.13
2019-02-18T23:07:28.773Z,81.10
2019-02-18T23:09:59.539Z,111.77
2019-02-18T23:12:30.484Z,88.70
2019-02-18T23:15:01.132Z,85.57
2019-02-18T23:17:31.601Z,110.47
2019-02-18T23:20:02.305Z,92.60
2019-02-18T23:22:33.515Z,82.30
2019-02-18T23:25:04.215Z,81.40
2019-02-18T23:27:35.166Z,86.73
2019-02-18T23:30:05.912Z,90.67
2019-02-18T23:32:36.986Z,105.77
2019-02-18T23:35:08.077Z,135.13
2019-02-18T23:37:38.987Z,90.83
2019-02-18T23:40:09.879Z,69.60
2019-02-18T23:42:40.756Z,79.17
2019-02-18T23:45:11.754Z,77.80
2019-02-18T23:47:42.687Z,60.20
2019-02-18T23:50:13.221Z,64.83
2019-02-18T23:52:44.193Z,72.67
2019-02-18T23:55:16.663Z,66.80
2019-02-18T23:57:47.291Z,76.93
